sensor_id;sensor_type;location;lat;lon;timestamp;temperature;humidity
21637;DHT22;10980;49.596;6.142;2022-08-23T00:02:54;20.60;76.60
21637;DHT22;10980;49.596;6.142;2022-08-23T00:06:18;20.70;76.70
21637;DHT22;10980;49.596;6.142;2022-08-23T00:09:39;20.80;76.40
21637;DHT22;10980;49.596;6.142;2022-08-23T00:13:01;20.50;77.10
21637;DHT22;10980;49.596;6.142;2022-08-23T00:16:23;20.60;76.90
21637;DHT22;10980;49.596;6.142;2022-08-23T00:19:46;20.60;76.80
21637;DHT22;10980;49.596;6.142;2022-08-23T00:23:09;20.50;77.10
21637;DHT22;10980;49.596;6.142;2022-08-23T00:27:01;20.50;76.70
21637;DHT22;10980;49.596;6.142;2022-08-23T00:30:25;20.00;79.00
21637;DHT22;10980;49.596;6.142;2022-08-23T00:33:47;19.90;79.60
21637;DHT22;10980;49.596;6.142;2022-08-23T00:37:09;19.90;80.00
21637;DHT22;10980;49.596;6.142;2022-08-23T00:40:31;19.90;79.80
21637;DHT22;10980;49.596;6.142;2022-08-23T00:43:54;19.90;79.80
21637;DHT22;10980;49.596;6.142;2022-08-23T00:47:34;19.70;80.40
21637;DHT22;10980;49.596;6.142;2022-08-23T00:51:13;19.80;80.40
21637;DHT22;10980;49.596;6.142;2022-08-23T00:54:39;19.60;81.20
21637;DHT22;10980;49.596;6.142;2022-08-23T00:58:02;19.50;81.60
21637;DHT22;10980;49.596;6.142;2022-08-23T01:01:25;19.50;81.70
21637;DHT22;10980;49.596;6.142;2022-08-23T01:04:55;19.40;81.90
21637;DHT22;10980;49.596;6.142;2022-08-23T01:08:18;19.40;82.10
21637;DHT22;10980;49.596;6.142;2022-08-23T01:11:52;19.30;82.50
21637;DHT22;10980;49.596;6.142;2022-08-23T01:15:35;19.30;82.70
21637;DHT22;10980;49.596;6.142;2022-08-23T01:19:01;19.50;81.60
21637;DHT22;10980;49.596;6.142;2022-08-23T01:22:48;19.30;82.70
21637;DHT22;10980;49.596;6.142;2022-08-23T01:26:15;19.20;82.80
21637;DHT22;10980;49.596;6.142;2022-08-23T01:29:43;19.30;82.50
21637;DHT22;10980;49.596;6.142;2022-08-23T01:33:05;19.20;82.80
21637;DHT22;10980;49.596;6.142;2022-08-23T01:36:29;19.40;82.20
21637;DHT22;10980;49.596;6.142;2022-08-23T01:39:51;19.20;83.20
21637;DHT22;10980;49.596;6.142;2022-08-23T01:43:14;19.00;84.00
21637;DHT22;10980;49.596;6.142;2022-08-23T01:46:36;18.80;84.60
21637;DHT22;10980;49.596;6.142;2022-08-23T01:49:59;18.80;84.90
21637;DHT22;10980;49.596;6.142;2022-08-23T01:53:23;18.70;85.20
21637;DHT22;10980;49.596;6.142;2022-08-23T01:56:45;18.70;85.60
21637;DHT22;10980;49.596;6.142;2022-08-23T02:00:09;18.60;85.70
21637;DHT22;10980;49.596;6.142;2022-08-23T02:03:34;18.10;87.90
21637;DHT22;10980;49.596;6.142;2022-08-23T02:06:57;18.30;87.50
21637;DHT22;10980;49.596;6.142;2022-08-23T02:10:20;18.50;86.00
21637;DHT22;10980;49.596;6.142;2022-08-23T02:13:43;18.10;88.10
21637;DHT22;10980;49.596;6.142;2022-08-23T02:17:07;18.40;86.60
21637;DHT22;10980;49.596;6.142;2022-08-23T02:20:30;18.50;86.00
21637;DHT22;10980;49.596;6.142;2022-08-23T02:23:51;18.30;86.70
21637;DHT22;10980;49.596;6.142;2022-08-23T02:27:14;18.10;87.30
21637;DHT22;10980;49.596;6.142;2022-08-23T02:30:38;18.40;86.30
21637;DHT22;10980;49.596;6.142;2022-08-23T02:34:03;18.50;85.70
21637;DHT22;10980;49.596;6.142;2022-08-23T02:37:26;18.30;86.80
21637;DHT22;10980;49.596;6.142;2022-08-23T02:40:49;18.00;88.40
21637;DHT22;10980;49.596;6.142;2022-08-23T02:44:22;18.00;88.70
21637;DHT22;10980;49.596;6.142;2022-08-23T02:47:45;18.10;88.30
21637;DHT22;10980;49.596;6.142;2022-08-23T02:51:12;18.10;88.40
21637;DHT22;10980;49.596;6.142;2022-08-23T02:54:34;17.90;89.20
21637;DHT22;10980;49.596;6.142;2022-08-23T02:57:56;17.80;89.40
21637;DHT22;10980;49.596;6.142;2022-08-23T03:01:24;17.70;90.10
21637;DHT22;10980;49.596;6.142;2022-08-23T03:04:48;17.70;90.00
21637;DHT22;10980;49.596;6.142;2022-08-23T03:08:11;17.60;90.20
21637;DHT22;10980;49.596;6.142;2022-08-23T03:11:44;17.60;90.30
21637;DHT22;10980;49.596;6.142;2022-08-23T03:15:08;17.50;90.50
21637;DHT22;10980;49.596;6.142;2022-08-23T03:18:30;17.50;90.60
21637;DHT22;10980;49.596;6.142;2022-08-23T03:21:54;17.60;90.50
21637;DHT22;10980;49.596;6.142;2022-08-23T03:25:16;17.60;90.60
21637;DHT22;10980;49.596;6.142;2022-08-23T03:28:53;17.50;90.60
21637;DHT22;10980;49.596;6.142;2022-08-23T03:32:20;17.50;90.70
21637;DHT22;10980;49.596;6.142;2022-08-23T03:35:46;17.50;90.70
21637;DHT22;10980;49.596;6.142;2022-08-23T03:39:08;17.50;90.70
21637;DHT22;10980;49.596;6.142;2022-08-23T03:42:30;17.60;91.00
21637;DHT22;10980;49.596;6.142;2022-08-23T03:45:52;17.50;90.70
21637;DHT22;10980;49.596;6.142;2022-08-23T03:49:15;17.30;91.20
21637;DHT22;10980;49.596;6.142;2022-08-23T03:52:43;17.30;91.20
21637;DHT22;10980;49.596;6.142;2022-08-23T03:56:05;17.30;91.20
21637;DHT22;10980;49.596;6.142;2022-08-23T03:59:28;17.40;91.00
21637;DHT22;10980;49.596;6.142;2022-08-23T04:02:50;17.30;91.10
21637;DHT22;10980;49.596;6.142;2022-08-23T04:06:14;17.40;91.10
21637;DHT22;10980;49.596;6.142;2022-08-23T04:09:37;17.30;91.40
21637;DHT22;10980;49.596;6.142;2022-08-23T04:12:59;17.20;91.50
21637;DHT22;10980;49.596;6.142;2022-08-23T04:16:21;17.10;91.70
21637;DHT22;10980;49.596;6.142;2022-08-23T04:19:43;17.10;91.80
21637;DHT22;10980;49.596;6.142;2022-08-23T04:23:05;17.00;91.90
21637;DHT22;10980;49.596;6.142;2022-08-23T04:26:38;17.10;91.80
21637;DHT22;10980;49.596;6.142;2022-08-23T04:30:01;17.00;92.10
21637;DHT22;10980;49.596;6.142;2022-08-23T04:33:23;17.00;91.90
21637;DHT22;10980;49.596;6.142;2022-08-23T04:36:45;17.10;91.80
21637;DHT22;10980;49.596;6.142;2022-08-23T04:40:16;17.10;91.80
21637;DHT22;10980;49.596;6.142;2022-08-23T04:43:56;16.90;92.10
21637;DHT22;10980;49.596;6.142;2022-08-23T04:47:20;16.90;92.50
21637;DHT22;10980;49.596;6.142;2022-08-23T04:50:43;16.70;92.80
21637;DHT22;10980;49.596;6.142;2022-08-23T04:54:09;16.70;92.90
21637;DHT22;10980;49.596;6.142;2022-08-23T04:57:45;16.80;92.70
21637;DHT22;10980;49.596;6.142;2022-08-23T05:01:11;16.70;92.90
21637;DHT22;10980;49.596;6.142;2022-08-23T05:04:38;16.70;93.10
21637;DHT22;10980;49.596;6.142;2022-08-23T05:07:59;16.90;92.60
21637;DHT22;10980;49.596;6.142;2022-08-23T05:11:22;16.90;92.70
21637;DHT22;10980;49.596;6.142;2022-08-23T05:14:44;16.80;93.00
21637;DHT22;10980;49.596;6.142;2022-08-23T05:18:09;16.70;93.30
21637;DHT22;10980;49.596;6.142;2022-08-23T05:21:32;16.70;93.40
21637;DHT22;10980;49.596;6.142;2022-08-23T05:24:55;16.70;93.70
21637;DHT22;10980;49.596;6.142;2022-08-23T05:28:23;16.70;93.30
21637;DHT22;10980;49.596;6.142;2022-08-23T05:31:46;16.80;93.40
21637;DHT22;10980;49.596;6.142;2022-08-23T05:35:11;17.00;93.10
21637;DHT22;10980;49.596;6.142;2022-08-23T05:38:37;16.90;93.30
21637;DHT22;10980;49.596;6.142;2022-08-23T05:42:01;17.00;93.30
21637;DHT22;10980;49.596;6.142;2022-08-23T05:45:24;17.10;93.30
21637;DHT22;10980;49.596;6.142;2022-08-23T05:48:49;17.10;93.20
21637;DHT22;10980;49.596;6.142;2022-08-23T05:52:13;17.20;93.30
21637;DHT22;10980;49.596;6.142;2022-08-23T05:55:37;17.30;93.20
21637;DHT22;10980;49.596;6.142;2022-08-23T05:59:13;17.50;92.80
21637;DHT22;10980;49.596;6.142;2022-08-23T06:02:37;17.50;92.70
21637;DHT22;10980;49.596;6.142;2022-08-23T06:05:59;17.70;92.50
21637;DHT22;10980;49.596;6.142;2022-08-23T06:09:21;17.70;92.50
21637;DHT22;10980;49.596;6.142;2022-08-23T06:12:43;17.80;92.30
21637;DHT22;10980;49.596;6.142;2022-08-23T06:16:06;18.00;91.90
21637;DHT22;10980;49.596;6.142;2022-08-23T06:19:36;18.00;91.90
21637;DHT22;10980;49.596;6.142;2022-08-23T06:23:24;18.20;92.00
21637;DHT22;10980;49.596;6.142;2022-08-23T06:26:46;18.30;91.70
21637;DHT22;10980;49.596;6.142;2022-08-23T06:30:09;18.40;91.60
21637;DHT22;10980;49.596;6.142;2022-08-23T06:33:42;18.40;91.50
21637;DHT22;10980;49.596;6.142;2022-08-23T06:37:23;18.50;91.20
21637;DHT22;10980;49.596;6.142;2022-08-23T06:41:14;18.60;91.30
21637;DHT22;10980;49.596;6.142;2022-08-23T06:44:44;18.60;91.20
21637;DHT22;10980;49.596;6.142;2022-08-23T06:48:10;18.70;91.30
21637;DHT22;10980;49.596;6.142;2022-08-23T06:51:40;18.80;91.20
21637;DHT22;10980;49.596;6.142;2022-08-23T06:55:14;19.00;90.90
21637;DHT22;10980;49.596;6.142;2022-08-23T06:58:48;19.00;90.70
21637;DHT22;10980;49.596;6.142;2022-08-23T07:02:24;19.10;90.80
21637;DHT22;10980;49.596;6.142;2022-08-23T07:05:49;19.10;90.40
21637;DHT22;10980;49.596;6.142;2022-08-23T07:09:18;19.30;90.30
21637;DHT22;10980;49.596;6.142;2022-08-23T07:12:41;19.50;89.80
21637;DHT22;10980;49.596;6.142;2022-08-23T07:16:04;19.60;89.70
21637;DHT22;10980;49.596;6.142;2022-08-23T07:19:30;19.70;88.80
21637;DHT22;10980;49.596;6.142;2022-08-23T07:22:52;19.80;88.50
21637;DHT22;10980;49.596;6.142;2022-08-23T07:26:15;19.90;87.80
21637;DHT22;10980;49.596;6.142;2022-08-23T07:29:38;20.00;87.50
21637;DHT22;10980;49.596;6.142;2022-08-23T07:33:01;20.10;87.20
21637;DHT22;10980;49.596;6.142;2022-08-23T07:36:32;20.20;86.90
21637;DHT22;10980;49.596;6.142;2022-08-23T07:39:54;20.30;86.50
21637;DHT22;10980;49.596;6.142;2022-08-23T07:43:20;20.40;86.20
21637;DHT22;10980;49.596;6.142;2022-08-23T07:46:43;20.40;85.80
21637;DHT22;10980;49.596;6.142;2022-08-23T07:50:05;20.60;85.30
21637;DHT22;10980;49.596;6.142;2022-08-23T07:53:27;20.80;84.50
21637;DHT22;10980;49.596;6.142;2022-08-23T07:57:00;20.80;84.30
21637;DHT22;10980;49.596;6.142;2022-08-23T08:00:42;20.90;83.80
21637;DHT22;10980;49.596;6.142;2022-08-23T08:04:23;21.20;82.60
21637;DHT22;10980;49.596;6.142;2022-08-23T08:07:45;21.20;81.90
21637;DHT22;10980;49.596;6.142;2022-08-23T08:11:08;21.30;82.20
21637;DHT22;10980;49.596;6.142;2022-08-23T08:14:31;21.40;81.60
21637;DHT22;10980;49.596;6.142;2022-08-23T08:17:56;21.50;81.10
21637;DHT22;10980;49.596;6.142;2022-08-23T08:21:39;21.60;80.50
21637;DHT22;10980;49.596;6.142;2022-08-23T08:25:13;21.70;80.00
21637;DHT22;10980;49.596;6.142;2022-08-23T08:28:36;21.80;79.40
21637;DHT22;10980;49.596;6.142;2022-08-23T08:31:59;21.90;78.40
21637;DHT22;10980;49.596;6.142;2022-08-23T08:35:22;22.00;78.70
21637;DHT22;10980;49.596;6.142;2022-08-23T08:38:45;22.30;77.10
21637;DHT22;10980;49.596;6.142;2022-08-23T08:49:32;22.50;76.50
21637;DHT22;10980;49.596;6.142;2022-08-23T08:53:01;22.60;76.20
21637;DHT22;10980;49.596;6.142;2022-08-23T08:56:46;22.60;76.00
21637;DHT22;10980;49.596;6.142;2022-08-23T09:00:22;22.70;75.90
21637;DHT22;10980;49.596;6.142;2022-08-23T09:03:45;22.70;75.70
21637;DHT22;10980;49.596;6.142;2022-08-23T09:11:12;22.70;76.70
21637;DHT22;10980;49.596;6.142;2022-08-23T09:18:31;22.90;75.10
21637;DHT22;10980;49.596;6.142;2022-08-23T09:21:58;22.80;75.30
21637;DHT22;10980;49.596;6.142;2022-08-23T09:25:21;22.70;76.20
21637;DHT22;10980;49.596;6.142;2022-08-23T09:28:54;22.90;75.30
21637;DHT22;10980;49.596;6.142;2022-08-23T09:32:32;23.00;75.20
21637;DHT22;10980;49.596;6.142;2022-08-23T09:36:04;23.30;74.40
21637;DHT22;10980;49.596;6.142;2022-08-23T09:39:31;23.20;75.50
21637;DHT22;10980;49.596;6.142;2022-08-23T09:43:22;23.40;74.20
21637;DHT22;10980;49.596;6.142;2022-08-23T09:46:47;23.30;74.30
21637;DHT22;10980;49.596;6.142;2022-08-23T09:54:29;23.50;73.40
21637;DHT22;10980;49.596;6.142;2022-08-23T09:57:53;23.80;72.20
21637;DHT22;10980;49.596;6.142;2022-08-23T10:01:22;23.90;71.10
21637;DHT22;10980;49.596;6.142;2022-08-23T10:08:50;24.00;70.70
21637;DHT22;10980;49.596;6.142;2022-08-23T10:12:14;24.00;70.50
21637;DHT22;10980;49.596;6.142;2022-08-23T10:19:17;24.20;70.40
21637;DHT22;10980;49.596;6.142;2022-08-23T10:23:11;24.40;69.50
21637;DHT22;10980;49.596;6.142;2022-08-23T10:27:13;24.30;69.90
21637;DHT22;10980;49.596;6.142;2022-08-23T10:31:10;24.30;69.90
21637;DHT22;10980;49.596;6.142;2022-08-23T10:34:41;24.60;68.60
21637;DHT22;10980;49.596;6.142;2022-08-23T10:38:32;24.50;68.70
21637;DHT22;10980;49.596;6.142;2022-08-23T10:45:26;24.60;68.50
21637;DHT22;10980;49.596;6.142;2022-08-23T10:48:55;24.60;68.20
21637;DHT22;10980;49.596;6.142;2022-08-23T10:52:31;24.90;67.70
21637;DHT22;10980;49.596;6.142;2022-08-23T10:55:57;25.10;67.60
21637;DHT22;10980;49.596;6.142;2022-08-23T10:59:33;25.10;67.30
21637;DHT22;10980;49.596;6.142;2022-08-23T11:03:31;25.30;67.20
21637;DHT22;10980;49.596;6.142;2022-08-23T11:06:57;25.70;65.60
21637;DHT22;10980;49.596;6.142;2022-08-23T11:14:00;26.20;64.10
21637;DHT22;10980;49.596;6.142;2022-08-23T11:25:02;26.80;62.30
21637;DHT22;10980;49.596;6.142;2022-08-23T11:28:44;27.00;61.40
21637;DHT22;10980;49.596;6.142;2022-08-23T11:32:30;26.90;61.70
21637;DHT22;10980;49.596;6.142;2022-08-23T11:54:25;27.60;59.50
21637;DHT22;10980;49.596;6.142;2022-08-23T11:58:14;27.40;58.70
21637;DHT22;10980;49.596;6.142;2022-08-23T12:01:40;27.20;59.80
21637;DHT22;10980;49.596;6.142;2022-08-23T12:12:13;27.50;59.00
21637;DHT22;10980;49.596;6.142;2022-08-23T12:19:47;28.50;58.00
21637;DHT22;10980;49.596;6.142;2022-08-23T12:23:16;28.80;56.40
21637;DHT22;10980;49.596;6.142;2022-08-23T12:26:57;29.30;54.80
21637;DHT22;10980;49.596;6.142;2022-08-23T12:30:21;29.40;54.30
21637;DHT22;10980;49.596;6.142;2022-08-23T12:34:02;29.30;54.80
21637;DHT22;10980;49.596;6.142;2022-08-23T12:44:44;28.70;55.30
21637;DHT22;10980;49.596;6.142;2022-08-23T12:48:08;29.00;55.10
21637;DHT22;10980;49.596;6.142;2022-08-23T12:51:32;29.50;54.50
21637;DHT22;10980;49.596;6.142;2022-08-23T12:55:00;29.70;53.00
21637;DHT22;10980;49.596;6.142;2022-08-23T12:58:27;29.80;52.90
21637;DHT22;10980;49.596;6.142;2022-08-23T13:01:54;30.60;52.10
21637;DHT22;10980;49.596;6.142;2022-08-23T13:05:45;30.40;52.20
21637;DHT22;10980;49.596;6.142;2022-08-23T13:09:11;29.30;53.70
21637;DHT22;10980;49.596;6.142;2022-08-23T13:12:36;29.20;54.70
21637;DHT22;10980;49.596;6.142;2022-08-23T13:16:00;29.10;54.40
21637;DHT22;10980;49.596;6.142;2022-08-23T13:19:28;29.20;55.00
21637;DHT22;10980;49.596;6.142;2022-08-23T13:23:09;29.70;54.50
21637;DHT22;10980;49.596;6.142;2022-08-23T13:26:35;30.70;52.00
21637;DHT22;10980;49.596;6.142;2022-08-23T13:33:30;31.70;50.10
21637;DHT22;10980;49.596;6.142;2022-08-23T13:36:57;31.00;50.80
21637;DHT22;10980;49.596;6.142;2022-08-23T13:40:29;30.60;51.40
21637;DHT22;10980;49.596;6.142;2022-08-23T13:43:51;30.50;51.30
21637;DHT22;10980;49.596;6.142;2022-08-23T13:47:22;31.00;51.10
21637;DHT22;10980;49.596;6.142;2022-08-23T13:50:44;30.50;50.90
21637;DHT22;10980;49.596;6.142;2022-08-23T13:54:12;31.00;51.40
21637;DHT22;10980;49.596;6.142;2022-08-23T13:57:37;31.60;49.60
21637;DHT22;10980;49.596;6.142;2022-08-23T14:01:02;32.60;47.80
21637;DHT22;10980;49.596;6.142;2022-08-23T14:04:24;31.40;48.80
21637;DHT22;10980;49.596;6.142;2022-08-23T14:07:47;31.00;49.10
21637;DHT22;10980;49.596;6.142;2022-08-23T14:11:13;30.90;49.50
21637;DHT22;10980;49.596;6.142;2022-08-23T14:14:36;30.70;49.80
21637;DHT22;10980;49.596;6.142;2022-08-23T14:17:58;30.80;49.80
21637;DHT22;10980;49.596;6.142;2022-08-23T14:21:20;30.80;49.90
21637;DHT22;10980;49.596;6.142;2022-08-23T14:24:42;30.60;50.40
21637;DHT22;10980;49.596;6.142;2022-08-23T14:28:06;30.70;50.10
21637;DHT22;10980;49.596;6.142;2022-08-23T14:31:27;30.70;50.40
21637;DHT22;10980;49.596;6.142;2022-08-23T14:34:49;31.10;49.60
21637;DHT22;10980;49.596;6.142;2022-08-23T14:38:11;31.10;49.20
21637;DHT22;10980;49.596;6.142;2022-08-23T14:41:35;31.40;48.90
21637;DHT22;10980;49.596;6.142;2022-08-23T14:44:57;31.30;49.20
21637;DHT22;10980;49.596;6.142;2022-08-23T14:48:19;30.70;49.60
21637;DHT22;10980;49.596;6.142;2022-08-23T14:51:43;30.30;50.20
21637;DHT22;10980;49.596;6.142;2022-08-23T14:55:07;30.30;50.30
21637;DHT22;10980;49.596;6.142;2022-08-23T14:58:30;30.50;50.60
21637;DHT22;10980;49.596;6.142;2022-08-23T15:01:52;30.70;50.10
21637;DHT22;10980;49.596;6.142;2022-08-23T15:05:15;30.70;49.60
21637;DHT22;10980;49.596;6.142;2022-08-23T15:08:37;31.10;49.50
21637;DHT22;10980;49.596;6.142;2022-08-23T15:11:59;32.30;47.80
21637;DHT22;10980;49.596;6.142;2022-08-23T15:15:41;34.00;45.80
21637;DHT22;10980;49.596;6.142;2022-08-23T15:19:03;34.60;44.00
21637;DHT22;10980;49.596;6.142;2022-08-23T15:22:24;34.20;44.20
21637;DHT22;10980;49.596;6.142;2022-08-23T15:25:46;33.90;44.60
21637;DHT22;10980;49.596;6.142;2022-08-23T15:29:08;34.50;44.10
21637;DHT22;10980;49.596;6.142;2022-08-23T15:32:30;35.00;43.50
21637;DHT22;10980;49.596;6.142;2022-08-23T15:35:53;36.00;42.00
21637;DHT22;10980;49.596;6.142;2022-08-23T15:39:16;36.70;40.90
21637;DHT22;10980;49.596;6.142;2022-08-23T15:42:38;37.30;40.10
21637;DHT22;10980;49.596;6.142;2022-08-23T15:46:03;37.50;39.40
21637;DHT22;10980;49.596;6.142;2022-08-23T15:49:27;38.10;38.80
21637;DHT22;10980;49.596;6.142;2022-08-23T15:52:54;38.80;38.10
21637;DHT22;10980;49.596;6.142;2022-08-23T15:56:23;38.40;37.80
21637;DHT22;10980;49.596;6.142;2022-08-23T15:59:47;37.00;39.30
21637;DHT22;10980;49.596;6.142;2022-08-23T16:03:09;35.60;40.90
21637;DHT22;10980;49.596;6.142;2022-08-23T16:06:41;34.20;43.20
21637;DHT22;10980;49.596;6.142;2022-08-23T16:10:07;33.10;44.40
21637;DHT22;10980;49.596;6.142;2022-08-23T16:13:29;32.90;45.00
21637;DHT22;10980;49.596;6.142;2022-08-23T16:16:51;32.90;45.40
21637;DHT22;10980;49.596;6.142;2022-08-23T16:20:16;32.20;45.80
21637;DHT22;10980;49.596;6.142;2022-08-23T16:23:38;32.50;45.70
21637;DHT22;10980;49.596;6.142;2022-08-23T16:27:00;32.80;45.40
21637;DHT22;10980;49.596;6.142;2022-08-23T16:30:22;33.40;44.60
21637;DHT22;10980;49.596;6.142;2022-08-23T16:33:44;33.60;44.00
21637;DHT22;10980;49.596;6.142;2022-08-23T16:37:08;33.20;44.40
21637;DHT22;10980;49.596;6.142;2022-08-23T16:40:30;33.00;44.70
21637;DHT22;10980;49.596;6.142;2022-08-23T16:43:52;33.60;44.00
21637;DHT22;10980;49.596;6.142;2022-08-23T16:47:14;33.90;44.00
21637;DHT22;10980;49.596;6.142;2022-08-23T16:50:37;35.20;42.20
21637;DHT22;10980;49.596;6.142;2022-08-23T16:53:59;36.40;40.20
21637;DHT22;10980;49.596;6.142;2022-08-23T16:57:23;37.00;39.60
21637;DHT22;10980;49.596;6.142;2022-08-23T17:00:45;37.40;38.90
21637;DHT22;10980;49.596;6.142;2022-08-23T17:04:07;37.80;38.30
21637;DHT22;10980;49.596;6.142;2022-08-23T17:07:29;37.20;38.70
21637;DHT22;10980;49.596;6.142;2022-08-23T17:10:51;36.60;39.40
21637;DHT22;10980;49.596;6.142;2022-08-23T17:14:14;36.60;39.90
21637;DHT22;10980;49.596;6.142;2022-08-23T17:17:36;37.80;38.50
21637;DHT22;10980;49.596;6.142;2022-08-23T17:20:58;38.90;37.50
21637;DHT22;10980;49.596;6.142;2022-08-23T17:24:19;37.00;38.60
21637;DHT22;10980;49.596;6.142;2022-08-23T17:27:42;37.60;38.30
21637;DHT22;10980;49.596;6.142;2022-08-23T17:31:07;36.70;39.20
21637;DHT22;10980;49.596;6.142;2022-08-23T17:34:29;35.60;41.00
21637;DHT22;10980;49.596;6.142;2022-08-23T17:37:51;34.80;42.30
21637;DHT22;10980;49.596;6.142;2022-08-23T17:41:12;32.70;45.50
21637;DHT22;10980;49.596;6.142;2022-08-23T17:44:34;31.80;46.90
21637;DHT22;10980;49.596;6.142;2022-08-23T17:47:56;31.30;48.00
21637;DHT22;10980;49.596;6.142;2022-08-23T17:51:18;31.00;48.70
21637;DHT22;10980;49.596;6.142;2022-08-23T17:54:40;30.90;49.00
21637;DHT22;10980;49.596;6.142;2022-08-23T17:58:04;31.20;48.30
21637;DHT22;10980;49.596;6.142;2022-08-23T18:01:26;30.90;48.90
21637;DHT22;10980;49.596;6.142;2022-08-23T18:04:48;30.70;49.00
21637;DHT22;10980;49.596;6.142;2022-08-23T18:08:10;30.60;49.50
21637;DHT22;10980;49.596;6.142;2022-08-23T18:11:32;30.30;50.00
21637;DHT22;10980;49.596;6.142;2022-08-23T18:14:54;30.50;49.70
21637;DHT22;10980;49.596;6.142;2022-08-23T18:18:16;30.10;50.40
21637;DHT22;10980;49.596;6.142;2022-08-23T18:21:39;29.90;51.00
21637;DHT22;10980;49.596;6.142;2022-08-23T18:25:02;29.60;51.50
21637;DHT22;10980;49.596;6.142;2022-08-23T18:28:24;29.20;52.20
21637;DHT22;10980;49.596;6.142;2022-08-23T18:31:46;29.50;51.90
21637;DHT22;10980;49.596;6.142;2022-08-23T18:35:09;29.70;51.50
21637;DHT22;10980;49.596;6.142;2022-08-23T18:38:31;29.60;51.70
21637;DHT22;10980;49.596;6.142;2022-08-23T18:41:53;29.60;51.80
21637;DHT22;10980;49.596;6.142;2022-08-23T18:45:16;29.10;52.80
21637;DHT22;10980;49.596;6.142;2022-08-23T18:48:39;29.20;52.60
21637;DHT22;10980;49.596;6.142;2022-08-23T18:52:02;29.20;52.80
21637;DHT22;10980;49.596;6.142;2022-08-23T18:55:24;29.30;52.50
21637;DHT22;10980;49.596;6.142;2022-08-23T18:58:46;29.20;52.60
21637;DHT22;10980;49.596;6.142;2022-08-23T19:02:08;28.90;53.50
21637;DHT22;10980;49.596;6.142;2022-08-23T19:05:31;28.80;53.70
21637;DHT22;10980;49.596;6.142;2022-08-23T19:09:04;28.60;54.20
21637;DHT22;10980;49.596;6.142;2022-08-23T19:12:26;28.60;54.40
21637;DHT22;10980;49.596;6.142;2022-08-23T19:15:48;28.50;54.40
21637;DHT22;10980;49.596;6.142;2022-08-23T19:19:12;28.50;54.40
21637;DHT22;10980;49.596;6.142;2022-08-23T19:22:33;28.50;54.70
21637;DHT22;10980;49.596;6.142;2022-08-23T19:25:55;28.60;54.80
21637;DHT22;10980;49.596;6.142;2022-08-23T19:29:17;28.40;55.20
21637;DHT22;10980;49.596;6.142;2022-08-23T19:32:40;28.30;55.80
21637;DHT22;10980;49.596;6.142;2022-08-23T19:36:03;28.30;55.60
21637;DHT22;10980;49.596;6.142;2022-08-23T19:39:26;28.20;56.10
21637;DHT22;10980;49.596;6.142;2022-08-23T19:42:48;27.90;56.70
21637;DHT22;10980;49.596;6.142;2022-08-23T19:46:10;27.60;57.30
21637;DHT22;10980;49.596;6.142;2022-08-23T19:49:36;27.60;57.90
21637;DHT22;10980;49.596;6.142;2022-08-23T19:52:58;27.50;58.20
21637;DHT22;10980;49.596;6.142;2022-08-23T19:56:20;27.20;58.60
21637;DHT22;10980;49.596;6.142;2022-08-23T19:59:42;27.10;59.00
21637;DHT22;10980;49.596;6.142;2022-08-23T20:03:05;26.90;59.80
21637;DHT22;10980;49.596;6.142;2022-08-23T20:06:28;26.80;60.20
21637;DHT22;10980;49.596;6.142;2022-08-23T20:09:50;26.80;60.30
21637;DHT22;10980;49.596;6.142;2022-08-23T20:13:11;26.50;61.00
21637;DHT22;10980;49.596;6.142;2022-08-23T20:16:33;26.50;61.40
21637;DHT22;10980;49.596;6.142;2022-08-23T20:19:55;26.20;61.60
21637;DHT22;10980;49.596;6.142;2022-08-23T20:23:17;26.60;61.10
21637;DHT22;10980;49.596;6.142;2022-08-23T20:26:58;26.40;62.10
21637;DHT22;10980;49.596;6.142;2022-08-23T20:30:19;26.10;62.70
21637;DHT22;10980;49.596;6.142;2022-08-23T20:33:41;26.10;63.00
21637;DHT22;10980;49.596;6.142;2022-08-23T20:37:07;25.70;63.80
21637;DHT22;10980;49.596;6.142;2022-08-23T20:40:28;25.80;64.00
21637;DHT22;10980;49.596;6.142;2022-08-23T20:43:50;25.60;64.60
21637;DHT22;10980;49.596;6.142;2022-08-23T20:47:12;25.60;65.10
21637;DHT22;10980;49.596;6.142;2022-08-23T20:50:34;25.30;65.70
21637;DHT22;10980;49.596;6.142;2022-08-23T20:53:56;25.40;65.90
21637;DHT22;10980;49.596;6.142;2022-08-23T20:57:18;25.40;66.00
21637;DHT22;10980;49.596;6.142;2022-08-23T21:00:40;25.20;66.20
21637;DHT22;10980;49.596;6.142;2022-08-23T21:04:02;24.90;66.80
21637;DHT22;10980;49.596;6.142;2022-08-23T21:07:24;25.00;66.90
21637;DHT22;10980;49.596;6.142;2022-08-23T21:10:48;24.80;67.50
21637;DHT22;10980;49.596;6.142;2022-08-23T21:14:11;24.60;67.90
21637;DHT22;10980;49.596;6.142;2022-08-23T21:17:37;24.50;68.50
21637;DHT22;10980;49.596;6.142;2022-08-23T21:20:59;24.60;68.30
21637;DHT22;10980;49.596;6.142;2022-08-23T21:24:21;24.40;68.40
21637;DHT22;10980;49.596;6.142;2022-08-23T21:27:43;24.20;69.20
21637;DHT22;10980;49.596;6.142;2022-08-23T21:31:10;24.10;69.60
21637;DHT22;10980;49.596;6.142;2022-08-23T21:34:32;24.10;69.70
21637;DHT22;10980;49.596;6.142;2022-08-23T21:37:55;24.30;69.60
21637;DHT22;10980;49.596;6.142;2022-08-23T21:41:39;24.10;70.00
21637;DHT22;10980;49.596;6.142;2022-08-23T21:45:01;24.10;69.70
21637;DHT22;10980;49.596;6.142;2022-08-23T21:48:23;24.00;70.30
21637;DHT22;10980;49.596;6.142;2022-08-23T21:51:45;24.00;70.40
21637;DHT22;10980;49.596;6.142;2022-08-23T21:55:07;24.00;70.40
21637;DHT22;10980;49.596;6.142;2022-08-23T21:58:29;23.80;70.40
21637;DHT22;10980;49.596;6.142;2022-08-23T22:01:51;23.60;70.60
21637;DHT22;10980;49.596;6.142;2022-08-23T22:05:13;23.70;70.40
21637;DHT22;10980;49.596;6.142;2022-08-23T22:08:36;23.70;71.10
21637;DHT22;10980;49.596;6.142;2022-08-23T22:11:58;23.50;71.20
21637;DHT22;10980;49.596;6.142;2022-08-23T22:15:20;23.60;71.50
21637;DHT22;10980;49.596;6.142;2022-08-23T22:18:42;23.20;72.40
21637;DHT22;10980;49.596;6.142;2022-08-23T22:22:04;23.30;71.60
21637;DHT22;10980;49.596;6.142;2022-08-23T22:25:26;23.40;71.40
21637;DHT22;10980;49.596;6.142;2022-08-23T22:28:48;23.20;72.20
21637;DHT22;10980;49.596;6.142;2022-08-23T22:32:10;23.30;72.50
21637;DHT22;10980;49.596;6.142;2022-08-23T22:35:33;23.30;72.90
21637;DHT22;10980;49.596;6.142;2022-08-23T22:38:57;23.10;73.40
21637;DHT22;10980;49.596;6.142;2022-08-23T22:42:19;23.10;73.70
21637;DHT22;10980;49.596;6.142;2022-08-23T22:45:58;22.90;74.40
21637;DHT22;10980;49.596;6.142;2022-08-23T22:49:21;22.80;75.30
21637;DHT22;10980;49.596;6.142;2022-08-23T22:52:46;22.70;75.30
21637;DHT22;10980;49.596;6.142;2022-08-23T22:56:15;22.60;75.40
21637;DHT22;10980;49.596;6.142;2022-08-23T22:59:38;22.40;76.20
21637;DHT22;10980;49.596;6.142;2022-08-23T23:03:00;22.60;75.90